createdAt,value
2019-05-29T00:00:14.630Z,932.5
2019-05-29T00:01:25.008Z,932.5
2019-05-29T00:02:14.147Z,932.5
2019-05-29T00:03:14.512Z,932.5
2019-05-29T00:04:15.969Z,932.5
2019-05-29T00:05:18.399Z,932.5
2019-05-29T00:06:18.668Z,932.4
2019-05-29T00:07:20.029Z,932.5
2019-05-29T00:08:21.424Z,932.4
2019-05-29T00:09:23.798Z,932.5
2019-05-29T00:10:23.919Z,932.6
2019-05-29T00:11:25.044Z,932
2019-05-29T00:12:26.576Z,932.5
2019-05-29T00:13:26.709Z,931.5
2019-05-29T00:14:33.068Z,932.6
2019-05-29T00:15:29.429Z,932.6
2019-05-29T00:16:30.819Z,932.6
2019-05-29T00:17:31.949Z,932.7
2019-05-29T00:18:33.344Z,932.6
2019-05-29T00:19:34.489Z,932.7
2019-05-29T00:20:35.888Z,932.7
2019-05-29T00:21:37.014Z,932.8
2019-05-29T00:22:38.505Z,932.7
2019-05-29T00:23:39.626Z,932.6
2019-05-29T00:24:41.033Z,932.7
2019-05-29T00:25:42.168Z,932.7
2019-05-29T00:26:46.531Z,932.7
2019-05-29T00:27:44.855Z,932.7
2019-05-29T00:28:46.241Z,932.5
2019-05-29T00:29:47.661Z,932.7
2019-05-29T00:30:49.044Z,932.7
2019-05-29T00:31:50.456Z,932.7
2019-05-29T00:32:51.235Z,932.6
2019-05-29T00:33:52.367Z,932.7
2019-05-29T00:34:53.513Z,932.7
2019-05-29T00:35:54.901Z,932.7
2019-05-29T00:36:56.297Z,932.7
2019-05-29T00:37:57.687Z,932.7
2019-05-29T00:38:59.081Z,932.7
2019-05-29T00:40:00.497Z,932.8
2019-05-29T00:41:01.619Z,932.7
2019-05-29T00:42:03.022Z,932.6
2019-05-29T00:43:03.795Z,932.8
2019-05-29T00:44:05.169Z,932.8
2019-05-29T00:45:07.269Z,932.8
2019-05-29T00:46:07.414Z,932.7
2019-05-29T00:47:09.436Z,932.8
2019-05-29T00:48:09.986Z,932.7
2019-05-29T00:49:11.761Z,932.7
2019-05-29T00:50:14.083Z,932.8
2019-05-29T00:51:15.078Z,932.8
2019-05-29T00:52:16.590Z,932.6
2019-05-29T00:53:16.355Z,932.8
2019-05-29T00:54:18.522Z,932.8
2019-05-29T00:55:18.738Z,932.8
2019-05-29T00:56:20.008Z,932.6
2019-05-29T00:57:20.692Z,932.7
2019-05-29T00:58:20.813Z,932.7
2019-05-29T00:59:21.945Z,932.7
2019-05-29T01:00:23.079Z,932.8
2019-05-29T01:01:24.215Z,932.8
2019-05-29T01:02:25.345Z,932.7
2019-05-29T01:03:26.124Z,932.7
2019-05-29T01:04:27.511Z,932.7
2019-05-29T01:05:28.661Z,932.8
2019-05-29T01:06:30.051Z,932.7
2019-05-29T01:07:31.463Z,932.7
2019-05-29T01:08:32.855Z,932.8
2019-05-29T01:09:34.277Z,932.5
2019-05-29T01:10:35.672Z,932.7
2019-05-29T01:11:37.066Z,932.8
2019-05-29T01:12:38.461Z,932.8
2019-05-29T01:13:39.033Z,932.9
2019-05-29T01:14:55.994Z,932.8
2019-05-29T01:15:41.239Z,932.8
2019-05-29T01:16:42.647Z,932.9
2019-05-29T01:17:44.035Z,932.9
2019-05-29T01:18:45.428Z,932.9
2019-05-29T01:19:46.557Z,933
2019-05-29T01:20:47.969Z,932.9
2019-05-29T01:21:49.391Z,932.9
2019-05-29T01:22:50.812Z,932.9
2019-05-29T01:23:51.558Z,932.9
2019-05-29T01:24:52.955Z,932.9
2019-05-29T01:25:54.101Z,932.9
2019-05-29T01:26:55.223Z,932.9
2019-05-29T01:27:56.361Z,932.9
2019-05-29T01:28:57.485Z,932.8
2019-05-29T01:29:58.627Z,932.9
2019-05-29T01:31:00.065Z,932.9
2019-05-29T01:32:01.190Z,933
2019-05-29T01:33:02.326Z,932.9
2019-05-29T01:34:03.089Z,931.2
2019-05-29T01:35:04.483Z,932.9
2019-05-29T01:36:05.630Z,932.9
2019-05-29T01:37:07.207Z,932.9
2019-05-29T01:38:08.597Z,932.9
2019-05-29T01:39:09.997Z,932.9
2019-05-29T01:40:32.424Z,932.8
2019-05-29T01:41:12.621Z,933
2019-05-29T01:42:15.153Z,932.9
2019-05-29T01:43:15.314Z,932.8
2019-05-29T01:44:15.351Z,932.9
2019-05-29T01:45:15.748Z,933
2019-05-29T01:46:17.283Z,932.8
2019-05-29T01:47:19.399Z,932.9
2019-05-29T01:48:19.675Z,932.9
2019-05-29T01:49:23.791Z,933
2019-05-29T01:50:23.686Z,932.9
2019-05-29T01:51:23.737Z,932.7
2019-05-29T01:52:25.001Z,933
2019-05-29T01:53:25.403Z,932.9
2019-05-29T01:54:27.946Z,932.9
2019-05-29T01:55:27.962Z,933
2019-05-29T01:56:29.255Z,933
2019-05-29T01:57:29.634Z,932.9
2019-05-29T01:58:31.033Z,932.9
2019-05-29T01:59:33.463Z,933
2019-05-29T02:00:33.941Z,933
2019-05-29T02:01:35.082Z,933
2019-05-29T02:02:36.671Z,933
2019-05-29T02:03:37.049Z,933
2019-05-29T02:04:37.807Z,933.1
2019-05-29T02:05:39.207Z,933.2
2019-05-29T02:06:40.647Z,933
2019-05-29T02:07:41.761Z,933.1
2019-05-29T02:08:43.165Z,933.2
2019-05-29T02:09:44.297Z,933.2
2019-05-29T02:10:45.427Z,933.2
2019-05-29T02:11:46.577Z,933.2
2019-05-29T02:12:47.971Z,933
2019-05-29T02:13:49.368Z,933.1
2019-05-29T02:14:49.959Z,933.2
2019-05-29T02:15:51.085Z,933.2
2019-05-29T02:16:52.251Z,933.2
2019-05-29T02:17:53.647Z,933.1
2019-05-29T02:18:55.041Z,933.3
2019-05-29T02:19:56.440Z,933.2
2019-05-29T02:20:57.823Z,933.3
2019-05-29T02:21:59.256Z,933.2
2019-05-29T02:23:00.642Z,933.4
2019-05-29T02:24:02.034Z,933.3
2019-05-29T02:25:02.814Z,933.2
2019-05-29T02:26:04.215Z,933.3
2019-05-29T02:27:05.634Z,933.3
2019-05-29T02:28:07.029Z,933.2
2019-05-29T02:29:08.422Z,933.3
2019-05-29T02:30:10.098Z,933.3
2019-05-29T02:31:10.500Z,933.3
2019-05-29T02:32:11.925Z,933.3
2019-05-29T02:33:13.321Z,933.3
2019-05-29T02:34:14.711Z,933.3
2019-05-29T02:35:15.201Z,933.3
2019-05-29T02:36:17.712Z,933.3
2019-05-29T02:37:18.239Z,933.3
2019-05-29T02:38:18.519Z,933.3
2019-05-29T02:39:20.977Z,933.4
2019-05-29T02:40:21.149Z,933.3
2019-05-29T02:41:23.122Z,933.4
2019-05-29T02:42:22.669Z,933.4
2019-05-29T02:43:27.695Z,933.3
2019-05-29T02:44:25.392Z,933.5
2019-05-29T02:45:52.442Z,933.5
2019-05-29T02:46:30.068Z,933.5
2019-05-29T02:47:28.023Z,933.5
2019-05-29T02:48:30.003Z,933.5
2019-05-29T02:49:30.275Z,933.5
2019-05-29T02:50:34.479Z,933.5
2019-05-29T02:51:35.440Z,933.4
2019-05-29T02:52:32.568Z,933.5
2019-05-29T02:53:36.067Z,933.4
2019-05-29T02:54:37.740Z,933.6
2019-05-29T02:55:36.491Z,933.5
2019-05-29T02:56:41.497Z,933.6
2019-05-29T02:57:38.830Z,933.6
2019-05-29T02:58:40.230Z,933.5
2019-05-29T02:59:41.628Z,933.7
2019-05-29T03:00:43.015Z,933.6
2019-05-29T03:01:44.430Z,933.4
2019-05-29T03:02:45.842Z,933.6
2019-05-29T03:03:47.237Z,933.7
2019-05-29T03:04:48.635Z,933.5
2019-05-29T03:05:48.881Z,933.6
2019-05-29T03:06:50.283Z,933.5
2019-05-29T03:07:51.702Z,933.6
2019-05-29T03:08:52.835Z,933.7
2019-05-29T03:09:53.953Z,933.6
2019-05-29T03:10:55.088Z,933.7
2019-05-29T03:11:59.952Z,933.7
2019-05-29T03:12:57.541Z,933.7
2019-05-29T03:13:58.929Z,933.5
2019-05-29T03:15:00.328Z,933.7
2019-05-29T03:16:17.904Z,933.8
2019-05-29T03:17:02.146Z,933.7
2019-05-29T03:18:03.563Z,933.7
2019-05-29T03:19:04.736Z,933.8
2019-05-29T03:20:06.107Z,933.8
2019-05-29T03:21:07.503Z,933.8
2019-05-29T03:22:08.917Z,933.8
2019-05-29T03:23:10.052Z,933.8
2019-05-29T03:24:11.446Z,933.8
2019-05-29T03:25:12.841Z,933.7
2019-05-29T03:26:13.325Z,933.8
2019-05-29T03:27:14.454Z,933.8
2019-05-29T03:28:15.650Z,933.8
2019-05-29T03:29:16.753Z,933.8
2019-05-29T03:30:17.869Z,933.8
2019-05-29T03:31:18.999Z,933.9
2019-05-29T03:32:20.131Z,933.8
2019-05-29T03:33:21.575Z,933.9
2019-05-29T03:34:22.949Z,933.9
2019-05-29T03:35:27.210Z,933.9
2019-05-29T03:36:28.264Z,934
2019-05-29T03:37:26.244Z,933.8
2019-05-29T03:38:28.087Z,934
2019-05-29T03:39:28.077Z,934
2019-05-29T03:40:29.373Z,933.9
2019-05-29T03:41:30.263Z,933.8
2019-05-29T03:42:34.421Z,934.1
2019-05-29T03:43:33.512Z,933.9
2019-05-29T03:44:33.139Z,933.9
2019-05-29T03:45:39.293Z,933.2
2019-05-29T03:48:32.190Z,934.1
2019-05-29T03:49:35.148Z,934
2019-05-29T03:50:33.260Z,934.1
2019-05-29T03:51:34.963Z,934.1
2019-05-29T03:52:38.800Z,934.2
2019-05-29T03:53:40.977Z,934.1
2019-05-29T03:54:40.593Z,934.2
2019-05-29T03:55:40.805Z,934.2
2019-05-29T03:56:40.133Z,934
2019-05-29T03:57:42.977Z,934.3
2019-05-29T03:58:43.023Z,934.1
2019-05-29T03:59:42.825Z,934.2
2019-05-29T04:00:53.944Z,934.3
2019-05-29T04:01:43.249Z,934.1
2019-05-29T04:02:47.207Z,934.3
2019-05-29T04:03:45.574Z,934.3
2019-05-29T04:04:46.728Z,934.3
2019-05-29T04:05:48.124Z,934.2
2019-05-29T04:06:52.918Z,934.2
2019-05-29T04:07:50.272Z,934.3
2019-05-29T04:08:51.665Z,934.4
2019-05-29T04:09:52.183Z,934.3
2019-05-29T04:10:53.317Z,934.4
2019-05-29T04:11:54.704Z,934.3
2019-05-29T04:12:56.110Z,934.3
2019-05-29T04:13:57.494Z,934.4
2019-05-29T04:14:58.917Z,934.4
2019-05-29T04:16:00.308Z,934.4
2019-05-29T04:17:01.429Z,934.4
2019-05-29T04:18:02.562Z,934.5
2019-05-29T04:19:03.688Z,934.4
2019-05-29T04:20:04.947Z,934.5
2019-05-29T04:21:06.079Z,934.5
2019-05-29T04:22:07.202Z,934.5
2019-05-29T04:23:08.340Z,934.5
2019-05-29T04:24:09.726Z,934.5
2019-05-29T04:25:11.222Z,934.4
2019-05-29T04:26:12.589Z,934.4
2019-05-29T04:27:14.009Z,934.5
2019-05-29T04:28:15.379Z,934.5
2019-05-29T04:29:16.776Z,934.5
2019-05-29T04:30:17.967Z,934.4
2019-05-29T04:31:18.341Z,934.6
2019-05-29T04:32:19.475Z,934.6
2019-05-29T04:33:20.600Z,934.6
2019-05-29T04:34:21.734Z,934.6
2019-05-29T04:35:23.160Z,934.5
2019-05-29T04:36:24.549Z,934.6
2019-05-29T04:37:25.950Z,934.6
2019-05-29T04:38:28.610Z,934.6
2019-05-29T04:39:28.354Z,934.7
2019-05-29T04:40:30.206Z,934.7
2019-05-29T04:41:30.805Z,934.7
2019-05-29T04:42:33.133Z,934.7
2019-05-29T04:43:33.352Z,934.6
2019-05-29T04:44:41.086Z,934.7
2019-05-29T04:45:38.051Z,934.8
2019-05-29T04:46:38.376Z,934.8
2019-05-29T04:47:42.475Z,934.8
2019-05-29T04:48:43.016Z,934.8
2019-05-29T04:49:43.630Z,934.8
2019-05-29T04:50:40.740Z,934.6
2019-05-29T04:51:43.204Z,934.8
2019-05-29T04:52:45.627Z,934.8
2019-05-29T04:53:45.362Z,934.8
2019-05-29T04:54:45.630Z,934.8
2019-05-29T04:55:46.032Z,934.8
2019-05-29T04:56:47.435Z,934.8
2019-05-29T04:57:50.827Z,934.9
2019-05-29T04:58:49.408Z,935
2019-05-29T04:59:50.796Z,934.8
2019-05-29T05:01:04.923Z,935
2019-05-29T05:01:52.196Z,934.9
2019-05-29T05:02:53.586Z,935
2019-05-29T05:03:54.716Z,934.9
2019-05-29T05:04:56.155Z,934.9
2019-05-29T05:05:57.553Z,935
2019-05-29T05:06:58.965Z,935
2019-05-29T05:08:00.355Z,935
2019-05-29T05:09:01.813Z,935
2019-05-29T05:10:03.202Z,935
2019-05-29T05:11:03.700Z,935
2019-05-29T05:12:04.841Z,935
2019-05-29T05:13:06.243Z,935
2019-05-29T05:14:07.630Z,935.1
2019-05-29T05:15:09.025Z,934.9
2019-05-29T05:16:10.412Z,935
2019-05-29T05:17:25.135Z,935.1
2019-05-29T05:18:12.708Z,935.1
2019-05-29T05:19:16.315Z,935.1
2019-05-29T05:20:15.275Z,935.2
2019-05-29T05:21:15.752Z,935.2
2019-05-29T05:22:16.899Z,935.2
2019-05-29T05:23:18.307Z,935
2019-05-29T05:24:19.701Z,935.2
2019-05-29T05:25:21.104Z,935.3
2019-05-29T05:26:22.229Z,935.3
2019-05-29T05:27:23.655Z,935.1
2019-05-29T05:28:25.045Z,935.2
2019-05-29T05:29:26.443Z,935.3
2019-05-29T05:30:27.839Z,935.3
2019-05-29T05:31:28.604Z,935.1
2019-05-29T05:32:30.539Z,935.3
2019-05-29T05:33:30.683Z,935.3
2019-05-29T05:34:34.682Z,935.3
2019-05-29T05:35:33.086Z,935.3
2019-05-29T05:36:34.658Z,935.4
2019-05-29T05:37:34.838Z,935.4
2019-05-29T05:38:36.777Z,935.4
2019-05-29T05:39:39.029Z,935.3
2019-05-29T05:40:47.037Z,935.3
2019-05-29T05:41:38.946Z,935
2019-05-29T05:42:41.236Z,935.4
2019-05-29T05:43:41.309Z,935.4
2019-05-29T05:44:41.611Z,935.4
2019-05-29T05:45:44.348Z,935.5
2019-05-29T05:46:44.575Z,935.3
2019-05-29T05:48:02.987Z,935.5
2019-05-29T05:48:47.031Z,935.4
2019-05-29T05:49:47.413Z,935.5
2019-05-29T05:50:48.542Z,935.5
2019-05-29T05:51:49.049Z,935.5
2019-05-29T05:52:50.189Z,935.5
2019-05-29T05:53:51.313Z,935.5
2019-05-29T05:54:52.458Z,935.5
2019-05-29T05:55:53.842Z,935.4
2019-05-29T05:56:59.113Z,935.6
2019-05-29T05:57:56.509Z,935.6
2019-05-29T05:58:58.378Z,935.5
2019-05-29T05:59:58.759Z,935.6
2019-05-29T06:01:00.153Z,935.5
2019-05-29T06:02:01.012Z,935.6
2019-05-29T06:03:02.157Z,935.6
2019-05-29T06:04:03.277Z,935.6
2019-05-29T06:05:04.426Z,935.6
2019-05-29T06:06:05.555Z,935.6
2019-05-29T06:07:06.680Z,935.7
2019-05-29T06:08:07.847Z,935.6
2019-05-29T06:09:09.235Z,935.7
2019-05-29T06:10:10.632Z,935.6
2019-05-29T06:11:12.025Z,935.7
2019-05-29T06:12:12.907Z,935.3
2019-05-29T06:13:14.326Z,935.7
2019-05-29T06:14:15.727Z,935.7
2019-05-29T06:15:17.124Z,935.7
2019-05-29T06:16:18.523Z,935.8
2019-05-29T06:17:21.846Z,935.6
2019-05-29T06:18:27.353Z,935.7
2019-05-29T06:19:22.423Z,935.7
2019-05-29T06:20:23.830Z,935.4
2019-05-29T06:21:25.217Z,935.7
2019-05-29T06:22:25.981Z,935.7
2019-05-29T06:23:27.401Z,935.6
2019-05-29T06:24:28.801Z,935.7
2019-05-29T06:25:30.188Z,935.6
2019-05-29T06:26:38.962Z,935.7
2019-05-29T06:27:33.317Z,935.8
2019-05-29T06:28:33.121Z,935.8
2019-05-29T06:29:35.198Z,935.8
2019-05-29T06:30:36.487Z,935.8
2019-05-29T06:31:37.194Z,935.9
2019-05-29T06:32:37.359Z,935.8
2019-05-29T06:33:39.446Z,935.9
2019-05-29T06:34:39.559Z,935.9
2019-05-29T06:35:43.748Z,935.8
2019-05-29T06:36:41.579Z,935.8
2019-05-29T06:37:41.841Z,935.9
2019-05-29T06:38:44.220Z,935.9
2019-05-29T06:39:44.942Z,935.8
2019-05-29T06:40:47.326Z,935.9
2019-05-29T06:41:47.415Z,934.3
2019-05-29T06:42:47.318Z,935.9
2019-05-29T06:43:47.754Z,935.9
2019-05-29T06:44:54.994Z,935.9
2019-05-29T06:45:50.312Z,936
2019-05-29T06:46:51.704Z,935.9
2019-05-29T06:47:53.099Z,936
2019-05-29T06:49:06.348Z,935.9
2019-05-29T06:49:57.671Z,935.9
2019-05-29T06:51:02.317Z,935.9
2019-05-29T06:51:57.392Z,935.8
2019-05-29T06:52:58.149Z,935.9
2019-05-29T06:53:59.563Z,935.7
2019-05-29T06:55:00.691Z,935.8
2019-05-29T06:56:02.637Z,935.9
2019-05-29T06:57:03.302Z,935.9
2019-05-29T06:58:04.695Z,935.8
2019-05-29T06:59:06.367Z,936
2019-05-29T07:00:06.791Z,936
2019-05-29T07:01:07.917Z,936.1
2019-05-29T07:02:09.043Z,936
2019-05-29T07:03:09.868Z,936
2019-05-29T07:04:17.900Z,936.1
2019-05-29T07:05:12.231Z,936
2019-05-29T07:06:13.805Z,936.1
2019-05-29T07:07:14.189Z,936
2019-05-29T07:08:46.282Z,936.1
2019-05-29T07:09:16.787Z,936.2
2019-05-29T07:10:17.910Z,936.2
2019-05-29T07:11:19.038Z,936
2019-05-29T07:12:20.173Z,936
2019-05-29T07:13:20.949Z,936.2
2019-05-29T07:14:22.348Z,936.3
2019-05-29T07:15:23.485Z,936.2
2019-05-29T07:16:40.906Z,936.3
2019-05-29T07:17:25.527Z,935.7
2019-05-29T07:18:26.926Z,936.3
2019-05-29T07:20:03.090Z,936.3
2019-05-29T07:20:29.527Z,936.1
2019-05-29T07:21:31.127Z,936.3
2019-05-29T07:22:31.518Z,936.3
2019-05-29T07:23:32.275Z,936.3
2019-05-29T07:24:33.711Z,936.3
2019-05-29T07:25:35.095Z,936.2
2019-05-29T07:26:36.858Z,936.3
2019-05-29T07:27:37.302Z,936.3
2019-05-29T07:28:46.723Z,936.3
2019-05-29T07:29:39.044Z,936.3
2019-05-29T07:30:43.882Z,936.4
2019-05-29T07:31:41.316Z,936.3
2019-05-29T07:32:44.892Z,936.4
2019-05-29T07:33:45.239Z,936.4
2019-05-29T07:35:09.162Z,936.4
2019-05-29T07:35:47.685Z,936.4
2019-05-29T07:36:48.170Z,936.4
2019-05-29T07:37:47.915Z,936.4
2019-05-29T07:38:57.385Z,936.4
2019-05-29T07:39:47.783Z,936.4
2019-05-29T07:40:54.921Z,936.5
2019-05-29T07:41:49.995Z,936.5
2019-05-29T07:42:56.234Z,936.5
2019-05-29T07:43:52.066Z,936.6
2019-05-29T07:44:53.191Z,936.5
2019-05-29T07:45:54.333Z,936.6
2019-05-29T07:46:55.462Z,936.5
2019-05-29T07:47:56.585Z,936.6
2019-05-29T07:48:57.994Z,936.7
2019-05-29T07:49:59.384Z,936.6
2019-05-29T07:51:06.787Z,936.5
2019-05-29T07:52:01.567Z,936.6
2019-05-29T07:53:03.038Z,936.7
2019-05-29T07:54:03.797Z,936.7
2019-05-29T07:55:05.206Z,936.6
2019-05-29T07:56:19.591Z,935.3
2019-05-29T07:57:07.609Z,936.6
2019-05-29T07:58:08.746Z,936.6
2019-05-29T07:59:10.136Z,936.5
2019-05-29T08:00:11.541Z,936.7
2019-05-29T08:01:13.917Z,936.6
2019-05-29T08:02:14.113Z,936.6
2019-05-29T08:03:15.245Z,936.7
2019-05-29T08:04:16.620Z,936.5
2019-05-29T08:05:18.026Z,936.7
2019-05-29T08:06:19.191Z,936.7
2019-05-29T08:07:20.580Z,936.7
2019-05-29T08:08:21.971Z,936.6
2019-05-29T08:09:23.419Z,936.7
2019-05-29T08:10:24.520Z,936.8
2019-05-29T08:11:25.680Z,936.7
2019-05-29T08:12:27.079Z,936.7
2019-05-29T08:13:28.476Z,936.4
2019-05-29T08:14:29.258Z,936.8
2019-05-29T08:15:30.386Z,936.7
2019-05-29T08:16:31.530Z,936.8
2019-05-29T08:17:32.944Z,936.8
2019-05-29T08:18:34.381Z,936.8
2019-05-29T08:19:35.789Z,936.8
2019-05-29T08:20:37.172Z,936.8
2019-05-29T08:21:38.603Z,936.8
2019-05-29T08:22:40.403Z,936.8
2019-05-29T08:23:40.786Z,936.8
2019-05-29T08:24:42.575Z,936.8
2019-05-29T08:25:43.405Z,936.8
2019-05-29T08:26:44.791Z,936.8
2019-05-29T08:27:46.645Z,936.9
2019-05-29T08:28:46.699Z,936.8
2019-05-29T08:29:48.810Z,936.9
2019-05-29T08:31:01.374Z,936.8
2019-05-29T08:31:50.979Z,936.8
2019-05-29T08:32:51.245Z,936.8
2019-05-29T08:33:52.152Z,936.7
2019-05-29T08:34:52.646Z,936.9
2019-05-29T08:35:59.740Z,936.8
2019-05-29T08:37:06.174Z,936.8
2019-05-29T08:37:56.552Z,936.8
2019-05-29T08:38:56.676Z,936.8
2019-05-29T08:39:57.794Z,936.8
2019-05-29T08:40:59.196Z,936.8
2019-05-29T08:42:29.006Z,936.8
2019-05-29T08:43:01.136Z,936.9
2019-05-29T08:44:02.528Z,936.9
2019-05-29T08:45:03.291Z,935.9
2019-05-29T08:46:04.691Z,936.9
2019-05-29T08:47:16.387Z,936.9
2019-05-29T08:48:06.677Z,936.8
2019-05-29T08:49:07.803Z,936.8
2019-05-29T08:50:24.588Z,936.9
2019-05-29T08:51:09.564Z,936.9
2019-05-29T08:52:12.418Z,936.8
2019-05-29T08:53:11.918Z,936.9
2019-05-29T08:54:29.667Z,936.7
2019-05-29T08:55:14.070Z,936.9
2019-05-29T08:56:15.450Z,937
2019-05-29T08:57:16.597Z,936.7
2019-05-29T08:58:19.038Z,937
2019-05-29T08:59:19.433Z,937
2019-05-29T09:00:20.832Z,937
2019-05-29T09:01:22.215Z,937
2019-05-29T09:02:23.630Z,937
2019-05-29T09:03:25.030Z,937.1
2019-05-29T09:04:26.169Z,936.8
2019-05-29T09:05:26.926Z,937.1
2019-05-29T09:06:28.316Z,937.1
2019-05-29T09:07:29.497Z,937.1
2019-05-29T09:08:30.889Z,936.8
2019-05-29T09:09:32.279Z,937
2019-05-29T09:10:33.676Z,937
2019-05-29T09:11:34.807Z,935.4
2019-05-29T09:12:38.420Z,936.8
2019-05-29T09:13:36.751Z,937
2019-05-29T09:14:38.140Z,937.1
2019-05-29T09:15:38.837Z,937
2019-05-29T09:16:39.976Z,937
2019-05-29T09:17:41.106Z,937
2019-05-29T09:18:42.246Z,937
2019-05-29T09:19:43.379Z,937
2019-05-29T09:21:01.500Z,937
2019-05-29T09:21:45.179Z,937.1
2019-05-29T09:22:46.616Z,937.1
2019-05-29T09:23:47.991Z,937.2
2019-05-29T09:24:49.382Z,937.1
2019-05-29T09:25:50.396Z,937
2019-05-29T09:26:52.075Z,937
2019-05-29T09:27:52.472Z,937
2019-05-29T09:28:53.875Z,937
2019-05-29T09:29:55.006Z,937
2019-05-29T09:30:56.403Z,937
2019-05-29T09:31:57.525Z,937.1
2019-05-29T09:32:58.952Z,937.1
2019-05-29T09:34:00.356Z,936.1
2019-05-29T09:35:01.748Z,937.1
2019-05-29T09:36:02.609Z,937.2
2019-05-29T09:37:04.361Z,937.1
2019-05-29T09:38:04.785Z,937.1
2019-05-29T09:39:06.182Z,937.2
2019-05-29T09:40:07.300Z,937.1
2019-05-29T09:41:08.701Z,937.1
2019-05-29T09:42:10.097Z,937.1
2019-05-29T09:43:11.527Z,937.1
2019-05-29T09:44:27.184Z,937.2
2019-05-29T09:45:13.437Z,937.2
2019-05-29T09:46:15.139Z,937.1
2019-05-29T09:47:15.507Z,937.3
2019-05-29T09:48:19.915Z,937.1
2019-05-29T09:49:18.249Z,937.1
2019-05-29T09:50:18.600Z,937.1
2019-05-29T09:51:27.467Z,937
2019-05-29T09:52:19.776Z,937.1
2019-05-29T09:53:20.937Z,937.1
2019-05-29T09:54:22.521Z,937
2019-05-29T09:55:22.898Z,937
2019-05-29T09:56:24.039Z,937
2019-05-29T09:57:25.521Z,936.5
2019-05-29T09:58:26.936Z,937
2019-05-29T09:59:28.343Z,937.2
2019-05-29T10:00:29.735Z,937.2
2019-05-29T10:01:31.337Z,937
2019-05-29T10:02:31.723Z,937.2
2019-05-29T10:03:32.895Z,937.1
2019-05-29T10:04:34.279Z,937.2
2019-05-29T10:05:35.680Z,936.6
2019-05-29T10:06:36.796Z,937
2019-05-29T10:07:38.185Z,937.2
2019-05-29T10:08:39.612Z,937.2
2019-05-29T10:09:41.016Z,937.2
2019-05-29T10:10:42.401Z,937.2
2019-05-29T10:11:43.787Z,937.2
2019-05-29T10:12:45.203Z,937.3
2019-05-29T10:13:46.615Z,937.3
2019-05-29T10:14:51.128Z,937.2
2019-05-29T10:15:48.681Z,937.3
2019-05-29T10:16:49.483Z,937.3
2019-05-29T10:17:50.879Z,937.3
2019-05-29T10:18:52.023Z,937.3
2019-05-29T10:19:55.351Z,937.3
2019-05-29T10:20:56.114Z,937.3
2019-05-29T10:21:56.640Z,937.4
2019-05-29T10:22:57.166Z,937.3
2019-05-29T10:23:59.558Z,937.4
2019-05-29T10:25:03.637Z,937.3
2019-05-29T10:26:06.511Z,937.4
2019-05-29T10:27:06.761Z,937.3
2019-05-29T10:28:05.745Z,937.4
2019-05-29T10:29:15.037Z,937.3
2019-05-29T10:30:04.325Z,937.5
2019-05-29T10:31:10.542Z,937.3
2019-05-29T10:32:06.895Z,937.4
2019-05-29T10:33:08.289Z,937.5
2019-05-29T10:34:09.719Z,937.5
2019-05-29T10:35:11.107Z,937.5
2019-05-29T10:36:12.503Z,937.4
2019-05-29T10:37:13.527Z,937.5
2019-05-29T10:38:14.661Z,937.5
2019-05-29T10:39:18.438Z,937.4
2019-05-29T10:40:16.538Z,937.4
2019-05-29T10:41:17.671Z,937.5
2019-05-29T10:42:20.662Z,937.5
2019-05-29T10:43:33.487Z,937.3
2019-05-29T10:44:21.313Z,937.5
2019-05-29T10:45:22.717Z,937.5
2019-05-29T10:46:24.118Z,937.5
2019-05-29T10:47:24.891Z,937.5
2019-05-29T10:48:26.270Z,937.5
2019-05-29T10:49:27.795Z,937.5
2019-05-29T10:50:29.225Z,937.5
2019-05-29T10:51:30.867Z,937.3
2019-05-29T10:52:31.253Z,937.5
2019-05-29T10:53:32.665Z,937.5
2019-05-29T10:54:34.078Z,937.5
2019-05-29T10:55:35.203Z,937.6
2019-05-29T10:56:36.328Z,937.5
2019-05-29T10:57:37.133Z,937.5
2019-05-29T10:59:01.329Z,937
2019-05-29T10:59:39.550Z,937.5
2019-05-29T11:00:45.420Z,937.6
2019-05-29T11:01:41.796Z,937.6
2019-05-29T11:02:42.928Z,937.5
2019-05-29T11:03:45.449Z,937.6
2019-05-29T11:04:48.569Z,937.6
2019-05-29T11:05:45.797Z,937.4
2019-05-29T11:06:48.003Z,937.6
2019-05-29T11:07:47.820Z,937.5
2019-05-29T11:08:49.989Z,937.5
2019-05-29T11:09:54.226Z,937.5
2019-05-29T11:10:52.063Z,937.5
2019-05-29T11:11:55.274Z,937.5
2019-05-29T11:12:54.635Z,937.6
2019-05-29T11:13:55.156Z,937.5
2019-05-29T11:14:56.905Z,937.5
2019-05-29T11:15:56.865Z,937.6
2019-05-29T11:16:58.688Z,937.3
2019-05-29T11:17:58.625Z,937.5
2019-05-29T11:18:59.012Z,937.5
2019-05-29T11:20:01.006Z,937.6
2019-05-29T11:21:01.381Z,937.5
2019-05-29T11:22:30.902Z,937.6
2019-05-29T11:23:03.776Z,937.6
2019-05-29T11:24:04.905Z,937.7
2019-05-29T11:25:21.386Z,937.7
2019-05-29T11:26:09.955Z,937.6
2019-05-29T11:27:08.319Z,936.2
2019-05-29T11:28:09.070Z,937.7
2019-05-29T11:29:10.640Z,937.5
2019-05-29T11:30:11.355Z,937.6
2019-05-29T11:31:11.899Z,937.6
2019-05-29T11:32:13.295Z,937.7
2019-05-29T11:33:14.831Z,937.7
2019-05-29T11:34:15.412Z,937.7
2019-05-29T11:35:16.566Z,937.7
2019-05-29T11:36:17.690Z,937.7
2019-05-29T11:37:18.816Z,937.6
2019-05-29T11:38:19.768Z,937.7
2019-05-29T11:39:21.162Z,937.8
2019-05-29T11:40:22.606Z,937.7
2019-05-29T11:41:32.216Z,937.7
2019-05-29T11:42:33.578Z,937.7
2019-05-29T11:43:25.627Z,937.7
2019-05-29T11:44:27.035Z,937.7
2019-05-29T11:45:28.505Z,937.6
2019-05-29T11:46:29.882Z,937.8
2019-05-29T11:47:31.293Z,937.7
2019-05-29T11:48:32.514Z,937.7
2019-05-29T11:49:33.908Z,937.7
2019-05-29T11:50:35.331Z,937.8
2019-05-29T11:51:36.758Z,937.8
2019-05-29T11:52:42.684Z,937.8
2019-05-29T11:53:39.200Z,937.8
2019-05-29T11:54:40.590Z,937.9
2019-05-29T11:55:42.034Z,937.8
2019-05-29T11:56:43.141Z,937.8
2019-05-29T11:57:44.278Z,937.8
2019-05-29T11:58:44.812Z,937.9
2019-05-29T11:59:46.193Z,937.8
2019-05-29T12:00:47.614Z,937.7
2019-05-29T12:01:59.235Z,937.9
2019-05-29T12:02:51.257Z,937.8
2019-05-29T12:04:34.242Z,937.9
2019-05-29T12:04:51.144Z,937.8
2019-05-29T12:05:53.478Z,937.2
2019-05-29T12:06:55.233Z,937.9
2019-05-29T12:07:55.439Z,937.8
2019-05-29T12:08:55.741Z,937.9
2019-05-29T12:09:55.924Z,938
2019-05-29T12:10:59.437Z,938
2019-05-29T12:11:57.929Z,938
2019-05-29T12:12:59.598Z,938
2019-05-29T12:14:00.458Z,938
2019-05-29T12:15:20.184Z,937.7
2019-05-29T12:16:01.817Z,938
2019-05-29T12:17:02.560Z,937.9
2019-05-29T12:18:19.767Z,937.9
2019-05-29T12:20:58.718Z,938.1
2019-05-29T12:22:00.528Z,938
2019-05-29T12:23:32.192Z,938
2019-05-29T12:24:02.304Z,938
2019-05-29T12:25:03.937Z,938
2019-05-29T12:26:28.240Z,937.9
2019-05-29T12:27:04.151Z,938
2019-05-29T12:28:05.281Z,938.1
2019-05-29T12:29:17.292Z,938
2019-05-29T12:30:08.638Z,938
2019-05-29T12:31:09.033Z,937.9
2019-05-29T12:32:17.501Z,938
2019-05-29T12:33:10.550Z,938
2019-05-29T12:34:18.597Z,937.9
2019-05-29T12:35:13.430Z,938
2019-05-29T12:36:14.582Z,938
2019-05-29T12:37:15.982Z,938.1
2019-05-29T12:38:17.387Z,938
2019-05-29T12:39:18.774Z,938.1
2019-05-29T12:40:20.168Z,938.2
2019-05-29T12:41:21.599Z,938.2
2019-05-29T12:42:22.650Z,936.5
2019-05-29T12:43:33.495Z,937.9
2019-05-29T12:44:24.805Z,936.5
2019-05-29T12:45:26.199Z,938.2
2019-05-29T12:46:27.614Z,938.3
2019-05-29T12:47:29.015Z,938.2
2019-05-29T12:48:30.406Z,938.4
2019-05-29T12:49:31.539Z,938.3
2019-05-29T12:50:34.457Z,936.8
2019-05-29T12:51:33.863Z,938.4
2019-05-29T12:52:34.650Z,938.5
2019-05-29T12:53:35.792Z,938.5
2019-05-29T12:54:37.168Z,938.6
2019-05-29T12:55:38.564Z,938.6
2019-05-29T12:56:39.726Z,938.6
2019-05-29T12:57:41.126Z,938.6
2019-05-29T12:58:42.543Z,938.6
2019-05-29T12:59:44.127Z,938.4
2019-05-29T13:00:44.545Z,938.5
2019-05-29T13:01:45.726Z,938.5
2019-05-29T13:02:46.498Z,938.6
2019-05-29T13:03:51.288Z,938.6
2019-05-29T13:05:21.447Z,938.5
2019-05-29T13:05:49.538Z,938.6
2019-05-29T13:06:50.968Z,938.5
2019-05-29T13:07:52.365Z,938.6
2019-05-29T13:08:54.557Z,938.6
2019-05-29T13:09:56.476Z,938.6
2019-05-29T13:10:56.212Z,937.7
2019-05-29T13:11:56.765Z,938.7
2019-05-29T13:13:01.199Z,938.6
2019-05-29T13:14:00.558Z,938.5
2019-05-29T13:14:58.694Z,938.5
2019-05-29T13:16:00.830Z,938.5
2019-05-29T13:17:03.015Z,938.7